Portada
METAR-TAF:

METAR-TAF

Aeroports :

Talara, Perú

latitud: 04-34S, longitud: 081-15W, altitud: 85 m

Observació

L'informe es va fer fa 13 hores i 40 minuts, a les 23:00 UTC
Vent 10 kt del Sud
Temperatura 21°C
Humitat 73%
Pressió 1010 hPa
Visibilitat 10 km o més
sense núvols per sota de 1500 mi sense presència de cumulonimbus.

METAR: SPYL 202300Z 19010KT CAVOK 21/16 Q1010 RMK BIRD HAZARD RWY 17/35 PP000

Hora: 07:40 (12:40 UTC)

Pronòstic

L'informe es va fer fa 2 hores i 10 minuts, a les 10:30 UTC
Pronòstic vàlid del 21 a les 12 UTC al 22 a les 12 UTC
Vent 12 kt del Sud
Visibilitat 10 km o més
sense núvols per sota de 1500 mi sense presència de cumulonimbus.
Temporalment
l' 21 a les 12 UTC al 21 a les 14 UTC
Escasses núvols a una alçada de 3000 ft
Núvols disperses a una alçada de 5000 ft

TAF: SPYL 211030Z 2112/2212 18012KT CAVOK TX27/2119Z TN19/2211Z TEMPO 2112/2114 FEW030 SCT050

Observacions i pronòstics meteorològics de més de 4000 aeroports (METAR i TAF).

Les estacions disponibles són els punts grocs i vermells al mapa.

Posi el ratolí al punt desitjat per veure el nom de l'estació.

Feu clic per veure les observacions i els pronòstics meteorològics.

Per canviar el mapa: feu clic els botons verds amb una creu de color negre per apropar; al botó verd amb un guió per allunyar la imatge; o en les fletxes verdes per a mapes adjacents.


METAR-TAF: